IL04 weather

Methodist Medical Center of Illinois Heliport
Peoria, Illinois, United States

Public forecast

Using degrees Fahrenheit for public forecast. Weather courtesy of forecast.io.

Closest aviation weather report (METAR) to Methodist Medical Center of Illinois Heliport

Closest report is General Wayne A. Downing Peoria International Airport, 5.0 nm (9.2 km) WSW. Retrieved 2020/01/23 07:19 UTC (1 minute ago):

KPIA 230719Z 18009KT 2 1/2SM -SN BR BKN006 OVC026 M01/M01 A3006

Closest aviation forecast (TAF) to Methodist Medical Center of Illinois Heliport

Closest forecast is General Wayne A. Downing Peoria International Airport, 5.0 nm (9.2 km) WSW. Retrieved 2020/01/23 06:24 UTC (56 minutes ago):

TAF KPIA 230521Z 2306/2406 17010KT P6SM -SN OVC025 FM230800 17010KT 3SM -SN OVC015 FM231300 17008KT 5SM -SN OVC008 FM232100 14006KT 5SM -SNRA OVC004 FM240000 12005KT 2SM -SN OVC003